createdAt,value
2023-02-27T00:00:47.735Z,-1.50
2023-02-27T00:03:16.024Z,-1.50
2023-02-27T00:05:44.261Z,-2.00
2023-02-27T00:08:12.588Z,-1.60
2023-02-27T00:10:40.986Z,-0.80
2023-02-27T00:13:11.068Z,-1.70
2023-02-27T00:15:41.188Z,-1.70
2023-02-27T00:18:12.480Z,-1.70
2023-02-27T00:20:40.705Z,-1.60
2023-02-27T00:23:10.617Z,-3.00
2023-02-27T00:25:38.937Z,-1.80
2023-02-27T00:28:09.823Z,-2.10
2023-02-27T00:30:37.950Z,-2.20
2023-02-27T00:33:11.023Z,-1.90
2023-02-27T00:35:39.113Z,-1.80
2023-02-27T00:38:07.574Z,-1.80
2023-02-27T00:40:36.611Z,-1.90
2023-02-27T00:43:05.763Z,-1.90
2023-02-27T00:45:33.933Z,-1.90
2023-02-27T00:48:02.159Z,-1.80
2023-02-27T00:50:31.722Z,-1.90
2023-02-27T00:53:00.318Z,-1.90
2023-02-27T00:55:28.442Z,-1.80
2023-02-27T00:57:58.688Z,-2.00
2023-02-27T01:00:27.551Z,-1.80
2023-02-27T01:02:55.792Z,-1.90
2023-02-27T01:05:23.926Z,-2.00
2023-02-27T01:07:54.203Z,-1.70
2023-02-27T01:10:22.811Z,-2.20
2023-02-27T01:17:49.358Z,-1.50
2023-02-27T01:22:46.268Z,-1.60
2023-02-27T01:25:15.756Z,-1.50
2023-02-27T01:27:44.164Z,-1.50
2023-02-27T01:30:14.819Z,-1.50
2023-02-27T01:32:42.852Z,-1.70
2023-02-27T01:35:11.034Z,-1.70
2023-02-27T01:40:09.684Z,-1.70
2023-02-27T01:42:39.253Z,-1.80
2023-02-27T01:45:30.530Z,-1.80
2023-02-27T01:48:10.235Z,-1.50
2023-02-27T01:50:42.258Z,-1.50
2023-02-27T01:53:10.667Z,-1.70
2023-02-27T01:55:40.432Z,-1.80
2023-02-27T01:58:12.062Z,-1.10
2023-02-27T02:00:40.808Z,-2.20
2023-02-27T02:03:17.668Z,-0.50
2023-02-27T02:05:48.253Z,-1.50
2023-02-27T02:08:20.268Z,-1.70
2023-02-27T02:10:49.930Z,-1.10
2023-02-27T02:13:20.233Z,-1.50
2023-02-27T02:15:56.661Z,-1.60
2023-02-27T02:18:32.216Z,-1.80
2023-02-27T02:21:28.655Z,-1.60
2023-02-27T02:24:36.095Z,-1.60
2023-02-27T02:27:13.308Z,-2.00
2023-02-27T02:30:23.381Z,-0.50
2023-02-27T02:33:31.148Z,-1.80
2023-02-27T02:36:38.019Z,-1.70
2023-02-27T02:39:28.614Z,-2.00
2023-02-27T02:42:05.758Z,-1.80
2023-02-27T02:44:44.865Z,-1.90
2023-02-27T02:47:24.342Z,-1.20
2023-02-27T02:52:33.383Z,-2.00
2023-02-27T02:55:10.736Z,-2.10
2023-02-27T02:57:43.408Z,-1.90
2023-02-27T03:00:15.961Z,-1.90
2023-02-27T03:02:48.569Z,-1.90
2023-02-27T03:05:23.700Z,-2.20
2023-02-27T03:07:58.102Z,-1.70
2023-02-27T03:10:33.349Z,-1.90
2023-02-27T03:18:08.061Z,-2.10
2023-02-27T03:23:13.279Z,-2.00
2023-02-27T03:25:46.424Z,-2.10
2023-02-27T03:28:19.879Z,-2.00
2023-02-27T03:30:53.522Z,-2.10
2023-02-27T03:33:26.645Z,-1.90
2023-02-27T03:36:06.168Z,-1.40
2023-02-27T03:38:41.152Z,-1.60
2023-02-27T03:43:51.733Z,-1.90
2023-02-27T03:46:24.151Z,-2.10
2023-02-27T03:48:53.141Z,-2.00
2023-02-27T03:51:23.531Z,-2.00
2023-02-27T03:53:58.725Z,-2.00
2023-02-27T03:56:33.768Z,-1.90
2023-02-27T03:59:01.892Z,-2.30
2023-02-27T04:01:30.789Z,-2.10
2023-02-27T04:04:03.709Z,-1.90
2023-02-27T04:06:50.474Z,-2.00
2023-02-27T04:09:30.644Z,-2.10
2023-02-27T04:12:14.593Z,-1.70
2023-02-27T04:14:53.351Z,-1.80
2023-02-27T04:17:26.232Z,-2.10
2023-02-27T04:20:18.844Z,-2.00
2023-02-27T04:22:51.344Z,-2.10
2023-02-27T04:25:47.220Z,-2.10
2023-02-27T04:28:19.807Z,-1.90
2023-02-27T04:30:57.097Z,-2.60
2023-02-27T04:33:32.836Z,-1.90
2023-02-27T04:36:07.984Z,-2.00
2023-02-27T04:43:43.903Z,-2.10
2023-02-27T04:46:15.298Z,-2.00
2023-02-27T04:48:48.136Z,-1.30
2023-02-27T04:51:19.868Z,-2.00
2023-02-27T04:53:53.893Z,-2.20
2023-02-27T04:59:00.315Z,-1.90
2023-02-27T05:04:03.042Z,-2.10
2023-02-27T05:06:35.341Z,-2.10
2023-02-27T05:11:46.560Z,-2.10
2023-02-27T05:14:23.844Z,-2.80
2023-02-27T05:16:55.787Z,-2.10
2023-02-27T05:19:26.622Z,-2.50
2023-02-27T05:22:01.105Z,-2.40
2023-02-27T05:24:37.196Z,-2.30
2023-02-27T05:27:17.678Z,-2.30
2023-02-27T05:32:33.790Z,-2.40
2023-02-27T05:35:12.316Z,-2.40
2023-02-27T05:40:16.423Z,-2.50
2023-02-27T05:50:24.845Z,-2.20
2023-02-27T05:55:27.254Z,-2.40
2023-02-27T05:58:12.086Z,-2.50
2023-02-27T06:00:48.838Z,-2.40
2023-02-27T06:03:17.465Z,-1.60
2023-02-27T06:05:46.568Z,-2.40
2023-02-27T06:08:15.015Z,-2.50
2023-02-27T06:10:43.407Z,-2.20
2023-02-27T06:23:12.484Z,-2.10
2023-02-27T06:30:46.032Z,-2.00
2023-02-27T06:33:14.405Z,-2.00
2023-02-27T06:38:33.400Z,-2.20
2023-02-27T06:41:02.552Z,-2.20
2023-02-27T06:43:34.532Z,-2.30
2023-02-27T06:46:04.666Z,-2.00
2023-02-27T06:48:32.776Z,-2.00
2023-02-27T06:51:01.014Z,-1.90
2023-02-27T06:58:25.809Z,-2.10
2023-02-27T07:05:54.329Z,-2.00
2023-02-27T07:08:22.379Z,-1.70
2023-02-27T07:10:50.602Z,-1.80
2023-02-27T07:13:19.792Z,-1.90
2023-02-27T07:18:16.408Z,-1.80
2023-02-27T07:20:45.961Z,-1.60
2023-02-27T07:23:13.998Z,-1.40
2023-02-27T07:25:42.091Z,-1.60
2023-02-27T07:28:10.199Z,-2.20
2023-02-27T07:30:39.064Z,-1.40
2023-02-27T07:33:08.212Z,-1.40
2023-02-27T07:35:57.181Z,-1.30
2023-02-27T07:38:29.090Z,-1.30
2023-02-27T07:40:59.005Z,-1.30
2023-02-27T07:46:02.113Z,-1.20
2023-02-27T07:48:30.913Z,-1.10
2023-02-27T07:53:42.964Z,-1.00
2023-02-27T07:58:45.217Z,-0.90
2023-02-27T08:01:14.265Z,-0.70
2023-02-27T08:03:42.787Z,-0.70
2023-02-27T08:06:13.384Z,-0.70
2023-02-27T08:08:43.504Z,-0.60
2023-02-27T08:11:12.583Z,-0.50
2023-02-27T08:13:59.541Z,-0.40
2023-02-27T08:16:41.020Z,0.50
2023-02-27T08:19:16.155Z,-0.40
2023-02-27T08:21:46.402Z,-0.50
2023-02-27T08:24:20.311Z,-0.50
2023-02-27T08:26:51.672Z,-0.40
2023-02-27T08:29:19.870Z,-0.40
2023-02-27T08:31:50.400Z,-0.30
2023-02-27T08:34:19.382Z,-0.20
2023-02-27T08:36:55.565Z,-0.20
2023-02-27T08:39:34.274Z,-0.20
2023-02-27T08:42:22.005Z,-0.40
2023-02-27T08:44:51.850Z,0.40
2023-02-27T08:47:21.268Z,-0.10
2023-02-27T08:49:49.499Z,-0.20
2023-02-27T08:52:18.064Z,0.00
2023-02-27T08:54:48.122Z,0.30
2023-02-27T08:57:16.296Z,0.20
2023-02-27T08:59:44.479Z,-0.10
2023-02-27T09:02:13.916Z,0.10
2023-02-27T09:04:42.293Z,0.10
2023-02-27T09:07:11.015Z,0.10
2023-02-27T09:09:39.935Z,0.20
2023-02-27T09:12:10.479Z,0.20
2023-02-27T09:14:44.085Z,0.10
2023-02-27T09:17:12.494Z,0.10
2023-02-27T09:19:40.915Z,-0.10
2023-02-27T09:28:15.417Z,0.00
2023-02-27T09:30:45.750Z,0.00
2023-02-27T09:33:16.671Z,0.10
2023-02-27T09:39:14.339Z,-0.10
2023-02-27T09:41:52.532Z,-0.70
2023-02-27T09:45:16.073Z,-0.40
2023-02-27T09:47:54.089Z,-0.60
2023-02-27T09:50:43.394Z,-0.50
2023-02-27T09:53:19.481Z,-0.50
2023-02-27T09:56:03.191Z,-0.50
2023-02-27T09:59:16.388Z,-0.30
2023-02-27T10:02:31.651Z,-0.10
2023-02-27T10:05:13.742Z,0.10
2023-02-27T10:11:29.757Z,0.40
2023-02-27T10:14:36.125Z,0.70
2023-02-27T10:23:23.145Z,0.70
2023-02-27T10:26:02.009Z,0.60
2023-02-27T10:28:35.082Z,0.60
2023-02-27T10:34:40.071Z,0.60
2023-02-27T10:48:17.544Z,0.70
2023-02-27T10:51:29.906Z,0.80
2023-02-27T10:54:57.683Z,0.80
2023-02-27T10:57:38.124Z,0.90
2023-02-27T11:00:42.323Z,0.90
2023-02-27T11:03:47.250Z,0.90
2023-02-27T11:06:58.800Z,0.90
2023-02-27T11:09:31.201Z,1.00
2023-02-27T11:12:31.394Z,0.90
2023-02-27T11:24:36.390Z,0.90
2023-02-27T11:27:23.751Z,2.60
2023-02-27T11:30:01.116Z,1.10
2023-02-27T11:32:59.113Z,1.60
2023-02-27T11:38:37.913Z,1.00
2023-02-27T11:41:17.482Z,0.90
2023-02-27T11:47:32.636Z,0.90
2023-02-27T11:50:42.918Z,1.10
2023-02-27T11:53:41.907Z,1.20
2023-02-27T11:59:48.133Z,1.60
2023-02-27T12:02:53.490Z,1.00
2023-02-27T12:05:33.611Z,1.20
2023-02-27T12:17:48.460Z,1.10
2023-02-27T12:20:28.240Z,1.30
2023-02-27T12:22:56.924Z,1.20
2023-02-27T12:25:36.590Z,0.40
2023-02-27T12:28:14.927Z,1.20
2023-02-27T12:30:54.756Z,1.00
2023-02-27T12:33:35.750Z,1.10
2023-02-27T12:36:19.169Z,0.90
2023-02-27T12:38:49.476Z,1.20
2023-02-27T12:41:49.420Z,0.80
2023-02-27T12:44:45.013Z,1.50
2023-02-27T12:47:34.545Z,0.50
2023-02-27T12:50:27.376Z,0.60
2023-02-27T12:53:22.560Z,0.50
2023-02-27T12:55:55.920Z,0.70
2023-02-27T12:58:36.343Z,0.90
2023-02-27T13:01:11.718Z,0.80
2023-02-27T13:03:54.353Z,1.00
2023-02-27T13:06:34.959Z,1.20
2023-02-27T13:09:19.695Z,0.80
2023-02-27T13:11:56.979Z,2.50
2023-02-27T13:14:36.576Z,0.90
2023-02-27T13:17:09.044Z,1.50
2023-02-27T13:20:09.072Z,1.00
2023-02-27T13:22:55.361Z,1.00
2023-02-27T13:25:30.615Z,1.30
2023-02-27T13:28:11.370Z,1.40
2023-02-27T13:30:43.624Z,1.20
2023-02-27T13:33:23.103Z,1.40
2023-02-27T13:36:02.323Z,1.20
2023-02-27T13:38:48.189Z,1.20
2023-02-27T13:41:45.714Z,1.40
2023-02-27T13:53:48.283Z,1.80
2023-02-27T13:56:40.723Z,1.70
2023-02-27T13:59:23.827Z,1.70
2023-02-27T14:02:12.892Z,1.50
2023-02-27T14:05:05.893Z,1.40
2023-02-27T14:07:50.805Z,1.40
2023-02-27T14:10:25.893Z,1.40
2023-02-27T14:12:58.967Z,1.40
2023-02-27T14:15:51.133Z,1.40
2023-02-27T14:18:52.644Z,1.30
2023-02-27T14:21:57.424Z,1.50
2023-02-27T14:24:35.277Z,1.30
2023-02-27T14:27:06.763Z,1.60
2023-02-27T14:29:47.835Z,1.90
2023-02-27T14:32:25.215Z,1.90
2023-02-27T14:34:56.741Z,2.00
2023-02-27T14:37:28.982Z,1.80
2023-02-27T14:40:02.812Z,1.90
2023-02-27T14:42:48.944Z,1.90
2023-02-27T14:45:24.554Z,2.00
2023-02-27T14:47:53.695Z,1.90
2023-02-27T14:53:25.516Z,1.80
2023-02-27T14:55:59.091Z,1.60
2023-02-27T14:58:33.343Z,1.40
2023-02-27T15:01:08.907Z,1.30
2023-02-27T15:03:42.236Z,1.30
2023-02-27T15:06:20.872Z,1.10
2023-02-27T15:08:53.471Z,0.80
2023-02-27T15:11:24.851Z,0.80
2023-02-27T15:13:59.509Z,0.50
2023-02-27T15:22:36.197Z,0.50
2023-02-27T15:25:08.577Z,0.70
2023-02-27T15:27:39.613Z,0.80
2023-02-27T15:30:10.548Z,0.90
2023-02-27T15:32:43.400Z,1.20
2023-02-27T15:41:26.019Z,0.70
2023-02-27T15:43:56.276Z,0.60
2023-02-27T15:46:27.006Z,0.60
2023-02-27T15:49:10.331Z,0.40
2023-02-27T15:51:40.849Z,0.60
2023-02-27T15:54:12.495Z,0.60
2023-02-27T15:56:43.377Z,0.50
2023-02-27T15:59:19.013Z,0.50
2023-02-27T16:02:16.074Z,0.30
2023-02-27T16:08:09.907Z,0.20
2023-02-27T16:10:49.164Z,0.30
2023-02-27T16:13:35.962Z,0.10
2023-02-27T16:18:52.302Z,0.30
2023-02-27T16:21:34.175Z,0.20
2023-02-27T16:26:48.876Z,0.20
2023-02-27T16:29:21.477Z,0.10
2023-02-27T16:31:52.975Z,0.10
2023-02-27T16:34:44.208Z,0.10
2023-02-27T16:37:32.588Z,-0.20
2023-02-27T16:40:02.685Z,-0.10
2023-02-27T16:42:33.105Z,-0.10
2023-02-27T16:45:02.627Z,-0.10
2023-02-27T16:47:36.650Z,-0.20
2023-02-27T16:53:03.687Z,-0.10
2023-02-27T16:55:33.810Z,-0.20
2023-02-27T16:58:15.414Z,-0.30
2023-02-27T17:00:48.218Z,-0.30
2023-02-27T17:03:16.756Z,-0.30
2023-02-27T17:05:45.480Z,-0.10
2023-02-27T17:08:14.272Z,-0.30
2023-02-27T17:10:45.371Z,-0.50
2023-02-27T17:13:27.201Z,-0.50
2023-02-27T17:15:57.835Z,-0.50
2023-02-27T17:18:31.862Z,-0.50
2023-02-27T17:21:02.889Z,-0.50
2023-02-27T17:23:31.329Z,-0.50
2023-02-27T17:28:58.052Z,-0.40
2023-02-27T17:31:27.057Z,-0.50
2023-02-27T17:33:55.483Z,-0.50
2023-02-27T17:36:24.809Z,-0.50
2023-02-27T17:38:56.510Z,-0.60
2023-02-27T17:41:29.563Z,-0.70
2023-02-27T17:44:01.863Z,-0.60
2023-02-27T17:46:33.543Z,-0.60
2023-02-27T17:52:47.496Z,-0.90
2023-02-27T17:55:18.016Z,-0.70
2023-02-27T17:57:48.592Z,-0.80
2023-02-27T18:00:20.986Z,-0.90
2023-02-27T18:02:49.667Z,-1.00
2023-02-27T18:05:18.462Z,-1.00
2023-02-27T18:07:46.804Z,-1.10
2023-02-27T18:10:16.509Z,-0.90
2023-02-27T18:12:45.140Z,-1.00
2023-02-27T18:15:13.785Z,-1.00
2023-02-27T18:17:44.884Z,-0.70
2023-02-27T18:20:14.374Z,-1.00
2023-02-27T18:22:42.648Z,-1.20
2023-02-27T18:25:16.660Z,-1.10
2023-02-27T18:27:46.396Z,-1.10
2023-02-27T18:30:15.124Z,-1.10
2023-02-27T18:32:48.560Z,-1.00
2023-02-27T18:35:18.788Z,-1.20
2023-02-27T18:38:02.044Z,-1.40
2023-02-27T18:40:30.498Z,-1.20
2023-02-27T18:42:58.807Z,-1.30
2023-02-27T18:45:30.542Z,-1.90
2023-02-27T18:48:14.255Z,-1.20
2023-02-27T18:50:42.788Z,-1.30
2023-02-27T18:53:24.885Z,-1.30
2023-02-27T18:55:56.798Z,-1.50
2023-02-27T18:58:25.089Z,-1.40
2023-02-27T19:00:55.763Z,-1.60
2023-02-27T19:03:27.368Z,-1.40
2023-02-27T19:05:57.196Z,-1.60
2023-02-27T19:08:29.812Z,-1.50
2023-02-27T19:13:31.799Z,-1.50
2023-02-27T19:16:05.016Z,-1.40
2023-02-27T19:18:46.772Z,-1.50
2023-02-27T19:21:15.969Z,-1.60
2023-02-27T19:23:44.770Z,-1.50
2023-02-27T19:26:13.138Z,-1.40
2023-02-27T19:28:41.769Z,-0.70
2023-02-27T19:31:12.902Z,-1.60
2023-02-27T19:33:43.310Z,-1.60
2023-02-27T19:39:54.310Z,-1.60
2023-02-27T20:42:01.163Z,-1.60
2023-02-27T20:44:57.395Z,-1.60
2023-02-27T20:52:28.471Z,-1.70
2023-02-27T20:58:43.740Z,-1.60
2023-02-27T21:01:15.337Z,-1.80
2023-02-27T21:03:58.548Z,-1.50
2023-02-27T21:06:27.894Z,-1.50
2023-02-27T21:08:57.365Z,-1.40
2023-02-27T21:11:27.557Z,-1.60
2023-02-27T21:13:56.209Z,-1.50
2023-02-27T21:16:27.105Z,-1.60
2023-02-27T21:18:57.127Z,-1.70
2023-02-27T21:21:30.644Z,-1.70
2023-02-27T21:23:59.569Z,-1.70
2023-02-27T21:26:31.035Z,-1.60
2023-02-27T21:29:02.221Z,-1.80
2023-02-27T21:31:34.024Z,-1.90
2023-02-27T21:34:04.443Z,-1.90
2023-02-27T21:39:08.700Z,-1.80
2023-02-27T21:41:39.201Z,-1.60
2023-02-27T21:44:12.686Z,-1.90
2023-02-27T21:46:45.464Z,-1.90
2023-02-27T21:49:20.412Z,-1.80
2023-02-27T21:52:04.309Z,-2.00
2023-02-27T21:54:32.726Z,-1.80
2023-02-27T21:57:03.369Z,-1.90
2023-02-27T21:59:31.806Z,-1.90
2023-02-27T22:02:02.439Z,-1.80
2023-02-27T22:04:30.750Z,-1.80
2023-02-27T22:06:59.016Z,-1.70
2023-02-27T22:09:27.427Z,-1.80
2023-02-27T22:11:55.625Z,-1.80
2023-02-27T22:14:24.594Z,-1.80
2023-02-27T22:16:53.754Z,-1.70
2023-02-27T22:19:23.546Z,-1.60
2023-02-27T22:21:51.794Z,-1.70
2023-02-27T22:24:20.524Z,-1.80
2023-02-27T22:26:50.335Z,-1.80
2023-02-27T22:29:18.746Z,-1.70
2023-02-27T22:31:47.256Z,-1.70
2023-02-27T22:34:19.406Z,-1.70
2023-02-27T22:36:52.722Z,-2.00
2023-02-27T22:39:21.895Z,-2.00
2023-02-27T22:41:50.265Z,-2.00
2023-02-27T22:44:18.567Z,-2.00
2023-02-27T22:46:48.694Z,-2.00
2023-02-27T22:49:19.220Z,-2.00
2023-02-27T22:51:50.937Z,-2.10
2023-02-27T22:54:21.225Z,-2.10
2023-02-27T22:56:51.819Z,-2.20
2023-02-27T22:59:20.169Z,-2.00
2023-02-27T23:01:48.871Z,-2.00
2023-02-27T23:04:18.293Z,-2.20
2023-02-27T23:06:48.323Z,-2.10
2023-02-27T23:09:19.122Z,-2.10
2023-02-27T23:11:47.912Z,-2.10
2023-02-27T23:14:17.203Z,-2.20
2023-02-27T23:16:46.692Z,-2.20
2023-02-27T23:19:17.033Z,-2.10
2023-02-27T23:21:45.488Z,-2.20
2023-02-27T23:24:16.859Z,-2.20
2023-02-27T23:26:47.329Z,-2.20
2023-02-27T23:29:15.935Z,-2.30
2023-02-27T23:31:44.257Z,-2.10
2023-02-27T23:34:12.448Z,-2.20
2023-02-27T23:36:41.983Z,-2.20
2023-02-27T23:39:10.593Z,-2.20
2023-02-27T23:41:40.586Z,-2.20
2023-02-27T23:44:08.753Z,-2.20
2023-02-27T23:46:37.557Z,-2.30
2023-02-27T23:49:05.765Z,-2.20
2023-02-27T23:51:35.146Z,-2.50
2023-02-27T23:54:03.681Z,-2.40
2023-02-27T23:56:32.470Z,-2.40
2023-02-27T23:59:04.462Z,-2.40
